Terminal Aerodrome Forecast
Issued by NWS Louisville, KY

Home | Current Version | Previous Version | Text Only | Print | Product List | Glossary On
Versions: 1 2 3 4 5 6 7 8 9 10 11 12 13 14 15 16 17 18 19 20 21 22 23
000
FTUS43 KLMK 300500
TAFLEX
TAF
KLEX 300520Z 3006/0106 21005KT P6SM BKN250
     FM300800 21004KT 4SM BR SCT250
      TEMPO 3010/3012 2SM BR
     FM301300 23010KT P6SM FEW040 SCT250
     FM301700 24010G15KT P6SM VCTS SCT040CB BKN250
     FM010100 20005KT P6SM FEW050 SCT250=

USA.gov is the U.S. government's official web portal to all federal, state and local government web resources and services.